Terminal Aerodrome Forecast
Issued by NWS Greer, SC

Home | Current Version | Previous Version | Text Only | Print | Product List | Glossary On
Versions: 1 2 3 4 5 6 7 8 9 10 11 12 13 14 15 16 17 18 19 20 21 22 23 24 25 26 27 28 29 30 31 32 33 34 35 36 37 38 39 40 41 42 43 44 45 46 47
000
FTUS42 KGSP 282056 AAA
TAFCLT
TAF AMD
KCLT 282056Z 2821/2918 13008KT P6SM VCSH BKN045
      TEMPO 2821/2823 VRB08G18KT 4SM TSRA BKN040CB
     FM290200 17004KT P6SM BKN045
     FM291000 00000KT 5SM BR BKN250
     FM291200 00000KT P6SM BKN080=

USA.gov is the U.S. government's official web portal to all federal, state and local government web resources and services.